Pagrindinis puslapis
METAR-TAF:

METAR-TAF

Oro uostai :

Barkisimetas, Venesuela

platuma: 10-04N, ilguma: 069-19W, Aukštis: 613 m

Dabartinis oras

Ataskaita buvo paskelbta 3 valandos ir 0 minutes, ne 22:00 UTC
Vėjas 2 kt iš Rytų
Temperatūra 28°C
Drėgmė 62%
Slėgis 1010 hPa
Matomumas 10 km arba daugiau
Išsisklaidę debesys ne aukštis 1600 ft

METAR: SVBM 222200Z 09002KT 9999 SCT016 28/20 Q1010

Laikas: 21:00 (01:00 UTC)

Prognozė

Ataskaita buvo paskelbta 1 valandą ir 0 minutes, ne 00:00 UTC
Prognozė galioja nuo 23 metu 00 UTC su 24 metu 00 UTC
Matomumas 10 km arba daugiau
Išsisklaidę debesys ne aukštis 2000 ft
Išsisklaidę debesys ne aukštis 8000 ft
Tapsmas
nuo 22 metu 20 UTC su 23 metu 00 UTC
Vėjas 3 kt iš Rytų/Šiaurės Rytų
Su prošvaistėmis ne aukštis 1600 ft

TAF: SVBM 230000Z 2300/2400 09008 9999 SCT020 SCT080 TX33/2218Z TN21/2208Z BECMG 2220/2300 07003KT BKN016

Orai ataskaitas ir orų prognozės (METAR, TAF).

turimą stotys yra geltonos ir raudonos taškus žemėlapyje.

Perkelti pele per norėdami pamatyti stoties vardą.

Tada spustelėkite, norėdami matyti oro stebėjimo ir prognozės.

Norėdami pakeisti žemėlapį: spustelėkite ant žalios mygtukų su juodo kryžiaus žemyn,; žalią mygtuką su brūkšneliu, jei norite nutolinti; arba žalių rodyklių gretimoms žemėlapius.


METAR-TAF: